sensor_id;sensor_type;location;lat;lon;timestamp;P1;durP1;ratioP1;P2;durP2;ratioP2
21152;SDS011;10734;44.792;20.482;2024-01-27T00:01:57;52.63;;;22.27;;
21152;SDS011;10734;44.792;20.482;2024-01-27T00:04:24;45.67;;;21.00;;
21152;SDS011;10734;44.792;20.482;2024-01-27T00:06:50;54.17;;;20.98;;
21152;SDS011;10734;44.792;20.482;2024-01-27T00:09:17;45.17;;;19.35;;
21152;SDS011;10734;44.792;20.482;2024-01-27T00:11:44;52.72;;;18.67;;
21152;SDS011;10734;44.792;20.482;2024-01-27T00:14:10;44.03;;;16.63;;
21152;SDS011;10734;44.792;20.482;2024-01-27T00:16:37;43.00;;;17.30;;
21152;SDS011;10734;44.792;20.482;2024-01-27T00:19:04;40.40;;;16.75;;
21152;SDS011;10734;44.792;20.482;2024-01-27T00:21:31;43.75;;;16.42;;
21152;SDS011;10734;44.792;20.482;2024-01-27T00:23:58;43.70;;;15.18;;
21152;SDS011;10734;44.792;20.482;2024-01-27T00:26:27;39.47;;;16.77;;
21152;SDS011;10734;44.792;20.482;2024-01-27T00:28:54;45.45;;;16.58;;
21152;SDS011;10734;44.792;20.482;2024-01-27T00:31:21;42.25;;;15.82;;
21152;SDS011;10734;44.792;20.482;2024-01-27T00:33:47;37.20;;;16.67;;
21152;SDS011;10734;44.792;20.482;2024-01-27T00:36:14;41.28;;;16.20;;
21152;SDS011;10734;44.792;20.482;2024-01-27T00:38:41;36.15;;;14.32;;
21152;SDS011;10734;44.792;20.482;2024-01-27T00:41:08;40.63;;;15.40;;
21152;SDS011;10734;44.792;20.482;2024-01-27T00:43:36;42.70;;;15.73;;
21152;SDS011;10734;44.792;20.482;2024-01-27T00:46:02;39.60;;;15.75;;
21152;SDS011;10734;44.792;20.482;2024-01-27T00:48:29;36.03;;;15.13;;
21152;SDS011;10734;44.792;20.482;2024-01-27T00:50:56;39.90;;;15.30;;
21152;SDS011;10734;44.792;20.482;2024-01-27T00:53:22;34.35;;;14.27;;
21152;SDS011;10734;44.792;20.482;2024-01-27T00:55:49;39.15;;;14.73;;
21152;SDS011;10734;44.792;20.482;2024-01-27T00:58:16;38.83;;;13.45;;
21152;SDS011;10734;44.792;20.482;2024-01-27T01:00:43;39.33;;;13.70;;
21152;SDS011;10734;44.792;20.482;2024-01-27T01:03:10;34.00;;;12.90;;
21152;SDS011;10734;44.792;20.482;2024-01-27T01:05:36;33.00;;;12.30;;
21152;SDS011;10734;44.792;20.482;2024-01-27T01:08:03;34.40;;;12.02;;
21152;SDS011;10734;44.792;20.482;2024-01-27T01:10:30;32.65;;;11.80;;
21152;SDS011;10734;44.792;20.482;2024-01-27T01:12:57;34.00;;;12.05;;
21152;SDS011;10734;44.792;20.482;2024-01-27T01:15:24;32.15;;;11.20;;
21152;SDS011;10734;44.792;20.482;2024-01-27T01:17:51;31.38;;;10.57;;
21152;SDS011;10734;44.792;20.482;2024-01-27T01:23:23;31.55;;;10.90;;
21152;SDS011;10734;44.792;20.482;2024-01-27T01:25:50;27.50;;;12.25;;
21152;SDS011;10734;44.792;20.482;2024-01-27T01:28:16;31.30;;;13.07;;
21152;SDS011;10734;44.792;20.482;2024-01-27T01:30:43;33.55;;;12.70;;
21152;SDS011;10734;44.792;20.482;2024-01-27T01:33:10;35.90;;;13.15;;
21152;SDS011;10734;44.792;20.482;2024-01-27T01:38:44;26.55;;;12.15;;
21152;SDS011;10734;44.792;20.482;2024-01-27T01:41:12;29.45;;;11.52;;
21152;SDS011;10734;44.792;20.482;2024-01-27T01:43:39;32.50;;;12.77;;
21152;SDS011;10734;44.792;20.482;2024-01-27T01:46:05;34.92;;;12.20;;
21152;SDS011;10734;44.792;20.482;2024-01-27T01:48:32;31.40;;;12.35;;
21152;SDS011;10734;44.792;20.482;2024-01-27T01:54:03;35.97;;;13.20;;
21152;SDS011;10734;44.792;20.482;2024-01-27T01:56:30;31.92;;;14.15;;
21152;SDS011;10734;44.792;20.482;2024-01-27T01:58:57;33.33;;;13.55;;
21152;SDS011;10734;44.792;20.482;2024-01-27T02:01:24;31.08;;;13.75;;
21152;SDS011;10734;44.792;20.482;2024-01-27T02:03:51;31.92;;;13.20;;
21152;SDS011;10734;44.792;20.482;2024-01-27T02:06:18;35.55;;;13.60;;
21152;SDS011;10734;44.792;20.482;2024-01-27T02:08:44;30.85;;;14.00;;
21152;SDS011;10734;44.792;20.482;2024-01-27T02:11:11;29.92;;;14.32;;
21152;SDS011;10734;44.792;20.482;2024-01-27T02:13:38;40.53;;;16.40;;
21152;SDS011;10734;44.792;20.482;2024-01-27T02:16:05;42.47;;;17.08;;
21152;SDS011;10734;44.792;20.482;2024-01-27T02:18:31;40.80;;;16.17;;
21152;SDS011;10734;44.792;20.482;2024-01-27T02:21:01;41.90;;;18.10;;
21152;SDS011;10734;44.792;20.482;2024-01-27T02:23:28;49.80;;;18.27;;
21152;SDS011;10734;44.792;20.482;2024-01-27T02:25:54;45.50;;;17.65;;
21152;SDS011;10734;44.792;20.482;2024-01-27T02:28:21;37.90;;;15.02;;
21152;SDS011;10734;44.792;20.482;2024-01-27T02:30:49;41.80;;;17.05;;
21152;SDS011;10734;44.792;20.482;2024-01-27T02:33:16;40.45;;;14.88;;
21152;SDS011;10734;44.792;20.482;2024-01-27T02:35:43;40.58;;;13.27;;
21152;SDS011;10734;44.792;20.482;2024-01-27T02:38:10;28.45;;;12.55;;
21152;SDS011;10734;44.792;20.482;2024-01-27T02:40:37;34.00;;;13.05;;
21152;SDS011;10734;44.792;20.482;2024-01-27T02:43:03;34.63;;;12.52;;
21152;SDS011;10734;44.792;20.482;2024-01-27T02:45:30;31.95;;;14.52;;
21152;SDS011;10734;44.792;20.482;2024-01-27T02:47:57;39.25;;;14.75;;
21152;SDS011;10734;44.792;20.482;2024-01-27T02:50:24;44.95;;;17.63;;
21152;SDS011;10734;44.792;20.482;2024-01-27T02:52:50;38.33;;;16.17;;
21152;SDS011;10734;44.792;20.482;2024-01-27T02:55:17;45.17;;;19.33;;
21152;SDS011;10734;44.792;20.482;2024-01-27T02:57:44;45.88;;;20.10;;
21152;SDS011;10734;44.792;20.482;2024-01-27T03:00:10;50.65;;;18.35;;
21152;SDS011;10734;44.792;20.482;2024-01-27T03:02:37;60.03;;;21.10;;
21152;SDS011;10734;44.792;20.482;2024-01-27T03:05:04;41.58;;;19.40;;
21152;SDS011;10734;44.792;20.482;2024-01-27T03:07:30;45.83;;;19.13;;
21152;SDS011;10734;44.792;20.482;2024-01-27T03:09:57;49.13;;;17.98;;
21152;SDS011;10734;44.792;20.482;2024-01-27T03:12:23;46.13;;;17.52;;
21152;SDS011;10734;44.792;20.482;2024-01-27T03:14:50;36.17;;;17.20;;
21152;SDS011;10734;44.792;20.482;2024-01-27T03:17:17;43.53;;;17.45;;
21152;SDS011;10734;44.792;20.482;2024-01-27T03:19:44;40.03;;;16.33;;
21152;SDS011;10734;44.792;20.482;2024-01-27T03:25:15;33.58;;;14.98;;
21152;SDS011;10734;44.792;20.482;2024-01-27T03:27:41;40.67;;;17.55;;
21152;SDS011;10734;44.792;20.482;2024-01-27T03:30:08;37.80;;;16.38;;
21152;SDS011;10734;44.792;20.482;2024-01-27T03:32:36;33.78;;;14.18;;
21152;SDS011;10734;44.792;20.482;2024-01-27T03:35:03;36.40;;;15.15;;
21152;SDS011;10734;44.792;20.482;2024-01-27T03:37:30;34.72;;;13.90;;
21152;SDS011;10734;44.792;20.482;2024-01-27T03:39:56;31.50;;;14.23;;
21152;SDS011;10734;44.792;20.482;2024-01-27T03:42:23;30.30;;;12.68;;
21152;SDS011;10734;44.792;20.482;2024-01-27T03:44:50;32.42;;;13.20;;
21152;SDS011;10734;44.792;20.482;2024-01-27T03:47:18;23.90;;;12.25;;
21152;SDS011;10734;44.792;20.482;2024-01-27T03:49:44;28.10;;;12.93;;
21152;SDS011;10734;44.792;20.482;2024-01-27T03:52:11;31.23;;;13.57;;
21152;SDS011;10734;44.792;20.482;2024-01-27T03:54:38;25.83;;;11.77;;
21152;SDS011;10734;44.792;20.482;2024-01-27T03:57:05;31.55;;;12.57;;
21152;SDS011;10734;44.792;20.482;2024-01-27T03:59:31;28.42;;;13.88;;
21152;SDS011;10734;44.792;20.482;2024-01-27T04:01:58;32.33;;;14.52;;
21152;SDS011;10734;44.792;20.482;2024-01-27T04:04:25;26.58;;;13.05;;
21152;SDS011;10734;44.792;20.482;2024-01-27T04:06:51;30.35;;;13.82;;
21152;SDS011;10734;44.792;20.482;2024-01-27T04:09:18;26.88;;;12.02;;
21152;SDS011;10734;44.792;20.482;2024-01-27T04:11:45;30.25;;;12.82;;
21152;SDS011;10734;44.792;20.482;2024-01-27T04:14:11;15.55;;;8.57;;
21152;SDS011;10734;44.792;20.482;2024-01-27T04:16:38;29.70;;;10.38;;
21152;SDS011;10734;44.792;20.482;2024-01-27T04:19:06;21.58;;;9.60;;
21152;SDS011;10734;44.792;20.482;2024-01-27T04:21:32;22.67;;;9.10;;
21152;SDS011;10734;44.792;20.482;2024-01-27T04:23:59;16.73;;;7.43;;
21152;SDS011;10734;44.792;20.482;2024-01-27T04:26:26;10.50;;;5.07;;
21152;SDS011;10734;44.792;20.482;2024-01-27T04:28:52;9.48;;;3.70;;
21152;SDS011;10734;44.792;20.482;2024-01-27T04:31:19;6.18;;;2.35;;
21152;SDS011;10734;44.792;20.482;2024-01-27T04:33:46;8.70;;;2.50;;
21152;SDS011;10734;44.792;20.482;2024-01-27T04:36:12;8.27;;;2.20;;
21152;SDS011;10734;44.792;20.482;2024-01-27T04:38:39;6.55;;;2.70;;
21152;SDS011;10734;44.792;20.482;2024-01-27T04:41:06;5.90;;;2.22;;
21152;SDS011;10734;44.792;20.482;2024-01-27T04:43:32;4.00;;;1.83;;
21152;SDS011;10734;44.792;20.482;2024-01-27T04:45:59;4.07;;;1.33;;
21152;SDS011;10734;44.792;20.482;2024-01-27T04:48:26;3.63;;;1.33;;
21152;SDS011;10734;44.792;20.482;2024-01-27T04:53:44;4.82;;;1.35;;
21152;SDS011;10734;44.792;20.482;2024-01-27T04:56:11;7.53;;;1.83;;
21152;SDS011;10734;44.792;20.482;2024-01-27T04:58:39;5.30;;;1.25;;
21152;SDS011;10734;44.792;20.482;2024-01-27T05:01:05;3.92;;;1.38;;
21152;SDS011;10734;44.792;20.482;2024-01-27T05:03:33;4.07;;;1.40;;
21152;SDS011;10734;44.792;20.482;2024-01-27T05:09:31;3.72;;;1.23;;
21152;SDS011;10734;44.792;20.482;2024-01-27T05:12:00;4.22;;;1.05;;
21152;SDS011;10734;44.792;20.482;2024-01-27T05:14:26;4.60;;;1.40;;
21152;SDS011;10734;44.792;20.482;2024-01-27T05:16:53;7.30;;;1.20;;
21152;SDS011;10734;44.792;20.482;2024-01-27T05:19:20;5.28;;;1.13;;
21152;SDS011;10734;44.792;20.482;2024-01-27T05:24:55;2.08;;;0.80;;
21152;SDS011;10734;44.792;20.482;2024-01-27T05:27:22;5.45;;;0.88;;
21152;SDS011;10734;44.792;20.482;2024-01-27T05:29:48;2.15;;;1.00;;
21152;SDS011;10734;44.792;20.482;2024-01-27T05:32:16;3.00;;;0.75;;
21152;SDS011;10734;44.792;20.482;2024-01-27T05:34:42;4.82;;;0.95;;
21152;SDS011;10734;44.792;20.482;2024-01-27T05:37:09;2.33;;;0.75;;
21152;SDS011;10734;44.792;20.482;2024-01-27T05:39:36;4.03;;;1.10;;
21152;SDS011;10734;44.792;20.482;2024-01-27T05:42:02;3.83;;;1.02;;
21152;SDS011;10734;44.792;20.482;2024-01-27T05:44:29;3.75;;;0.82;;
21152;SDS011;10734;44.792;20.482;2024-01-27T05:46:56;2.38;;;1.02;;
21152;SDS011;10734;44.792;20.482;2024-01-27T05:49:22;3.53;;;0.90;;
21152;SDS011;10734;44.792;20.482;2024-01-27T05:51:49;1.13;;;0.60;;
21152;SDS011;10734;44.792;20.482;2024-01-27T05:54:16;1.48;;;0.80;;
21152;SDS011;10734;44.792;20.482;2024-01-27T05:56:43;1.38;;;0.50;;
21152;SDS011;10734;44.792;20.482;2024-01-27T05:59:10;3.90;;;1.20;;
21152;SDS011;10734;44.792;20.482;2024-01-27T06:01:36;2.50;;;0.85;;
21152;SDS011;10734;44.792;20.482;2024-01-27T06:04:03;3.90;;;0.98;;
21152;SDS011;10734;44.792;20.482;2024-01-27T06:06:49;3.65;;;0.63;;
21152;SDS011;10734;44.792;20.482;2024-01-27T06:09:15;4.60;;;1.13;;
21152;SDS011;10734;44.792;20.482;2024-01-27T06:11:42;4.20;;;1.42;;
21152;SDS011;10734;44.792;20.482;2024-01-27T06:14:09;3.47;;;0.95;;
21152;SDS011;10734;44.792;20.482;2024-01-27T06:16:36;8.68;;;1.27;;
21152;SDS011;10734;44.792;20.482;2024-01-27T06:19:02;2.42;;;0.60;;
21152;SDS011;10734;44.792;20.482;2024-01-27T06:24:43;3.42;;;1.17;;
21152;SDS011;10734;44.792;20.482;2024-01-27T06:27:10;1.98;;;0.80;;
21152;SDS011;10734;44.792;20.482;2024-01-27T06:29:37;1.98;;;0.75;;
21152;SDS011;10734;44.792;20.482;2024-01-27T06:32:05;5.25;;;1.00;;
21152;SDS011;10734;44.792;20.482;2024-01-27T06:34:32;5.15;;;1.10;;
21152;SDS011;10734;44.792;20.482;2024-01-27T06:37:18;4.15;;;0.90;;
21152;SDS011;10734;44.792;20.482;2024-01-27T06:39:48;3.65;;;1.08;;
21152;SDS011;10734;44.792;20.482;2024-01-27T06:42:15;2.38;;;1.13;;
21152;SDS011;10734;44.792;20.482;2024-01-27T06:44:41;4.20;;;1.30;;
21152;SDS011;10734;44.792;20.482;2024-01-27T06:47:08;5.65;;;1.58;;
21152;SDS011;10734;44.792;20.482;2024-01-27T06:49:34;4.80;;;1.30;;
21152;SDS011;10734;44.792;20.482;2024-01-27T06:52:01;2.50;;;1.20;;
21152;SDS011;10734;44.792;20.482;2024-01-27T06:54:28;1.58;;;1.08;;
21152;SDS011;10734;44.792;20.482;2024-01-27T06:56:54;2.40;;;1.00;;
21152;SDS011;10734;44.792;20.482;2024-01-27T06:59:21;3.03;;;0.90;;
21152;SDS011;10734;44.792;20.482;2024-01-27T07:01:48;8.82;;;4.72;;
21152;SDS011;10734;44.792;20.482;2024-01-27T07:04:15;2.75;;;1.05;;
21152;SDS011;10734;44.792;20.482;2024-01-27T07:06:43;2.75;;;1.23;;
21152;SDS011;10734;44.792;20.482;2024-01-27T07:09:10;4.57;;;1.13;;
21152;SDS011;10734;44.792;20.482;2024-01-27T07:11:37;4.05;;;1.13;;
21152;SDS011;10734;44.792;20.482;2024-01-27T07:14:04;4.38;;;1.20;;
21152;SDS011;10734;44.792;20.482;2024-01-27T07:16:30;2.50;;;1.00;;
21152;SDS011;10734;44.792;20.482;2024-01-27T07:18:58;2.78;;;0.93;;
21152;SDS011;10734;44.792;20.482;2024-01-27T07:21:25;3.45;;;0.85;;
21152;SDS011;10734;44.792;20.482;2024-01-27T07:23:53;2.03;;;0.77;;
21152;SDS011;10734;44.792;20.482;2024-01-27T07:26:21;3.58;;;0.90;;
21152;SDS011;10734;44.792;20.482;2024-01-27T07:28:48;3.95;;;0.70;;
21152;SDS011;10734;44.792;20.482;2024-01-27T07:31:14;3.72;;;0.95;;
21152;SDS011;10734;44.792;20.482;2024-01-27T07:33:41;1.92;;;0.73;;
21152;SDS011;10734;44.792;20.482;2024-01-27T07:36:08;4.63;;;0.80;;
21152;SDS011;10734;44.792;20.482;2024-01-27T07:38:35;7.70;;;1.58;;
21152;SDS011;10734;44.792;20.482;2024-01-27T07:41:01;4.05;;;1.15;;
21152;SDS011;10734;44.792;20.482;2024-01-27T07:43:28;3.50;;;0.73;;
21152;SDS011;10734;44.792;20.482;2024-01-27T07:45:55;4.78;;;1.02;;
21152;SDS011;10734;44.792;20.482;2024-01-27T07:48:21;3.50;;;1.00;;
21152;SDS011;10734;44.792;20.482;2024-01-27T07:50:49;3.70;;;1.40;;
21152;SDS011;10734;44.792;20.482;2024-01-27T07:53:17;2.00;;;0.93;;
21152;SDS011;10734;44.792;20.482;2024-01-27T07:55:43;6.38;;;1.33;;
21152;SDS011;10734;44.792;20.482;2024-01-27T07:58:10;7.70;;;0.90;;
21152;SDS011;10734;44.792;20.482;2024-01-27T08:00:36;4.75;;;0.73;;
21152;SDS011;10734;44.792;20.482;2024-01-27T08:03:03;2.90;;;1.25;;
21152;SDS011;10734;44.792;20.482;2024-01-27T08:05:30;2.40;;;0.90;;
21152;SDS011;10734;44.792;20.482;2024-01-27T08:10:55;4.72;;;1.15;;
21152;SDS011;10734;44.792;20.482;2024-01-27T08:13:22;2.83;;;0.98;;
21152;SDS011;10734;44.792;20.482;2024-01-27T08:15:48;3.92;;;1.25;;
21152;SDS011;10734;44.792;20.482;2024-01-27T08:18:16;7.80;;;1.17;;
21152;SDS011;10734;44.792;20.482;2024-01-27T08:20:43;3.90;;;0.98;;
21152;SDS011;10734;44.792;20.482;2024-01-27T08:23:09;2.35;;;0.70;;
21152;SDS011;10734;44.792;20.482;2024-01-27T08:25:36;4.85;;;1.17;;
21152;SDS011;10734;44.792;20.482;2024-01-27T08:28:03;1.95;;;0.77;;
21152;SDS011;10734;44.792;20.482;2024-01-27T08:30:30;4.82;;;1.20;;
21152;SDS011;10734;44.792;20.482;2024-01-27T08:32:57;4.80;;;1.20;;
21152;SDS011;10734;44.792;20.482;2024-01-27T08:35:23;5.25;;;1.23;;
21152;SDS011;10734;44.792;20.482;2024-01-27T08:40:54;5.07;;;0.80;;
21152;SDS011;10734;44.792;20.482;2024-01-27T08:43:21;8.95;;;1.38;;
21152;SDS011;10734;44.792;20.482;2024-01-27T08:45:47;5.82;;;1.20;;
21152;SDS011;10734;44.792;20.482;2024-01-27T08:48:14;7.95;;;0.98;;
21152;SDS011;10734;44.792;20.482;2024-01-27T08:50:42;6.03;;;1.15;;
21152;SDS011;10734;44.792;20.482;2024-01-27T08:53:08;4.97;;;1.20;;
21152;SDS011;10734;44.792;20.482;2024-01-27T08:55:36;7.40;;;1.25;;
21152;SDS011;10734;44.792;20.482;2024-01-27T08:58:02;3.47;;;1.00;;
21152;SDS011;10734;44.792;20.482;2024-01-27T09:00:29;6.85;;;1.40;;
21152;SDS011;10734;44.792;20.482;2024-01-27T09:02:56;4.85;;;1.27;;
21152;SDS011;10734;44.792;20.482;2024-01-27T09:05:23;6.10;;;1.67;;
21152;SDS011;10734;44.792;20.482;2024-01-27T09:07:50;8.02;;;1.95;;
21152;SDS011;10734;44.792;20.482;2024-01-27T09:10:16;5.28;;;1.13;;
21152;SDS011;10734;44.792;20.482;2024-01-27T09:12:43;9.82;;;1.80;;
21152;SDS011;10734;44.792;20.482;2024-01-27T09:15:10;4.00;;;0.93;;
21152;SDS011;10734;44.792;20.482;2024-01-27T09:17:37;7.05;;;1.70;;
21152;SDS011;10734;44.792;20.482;2024-01-27T09:20:03;7.22;;;1.80;;
21152;SDS011;10734;44.792;20.482;2024-01-27T09:22:30;9.00;;;1.83;;
21152;SDS011;10734;44.792;20.482;2024-01-27T09:24:57;8.80;;;1.77;;
21152;SDS011;10734;44.792;20.482;2024-01-27T09:27:24;7.47;;;1.67;;
21152;SDS011;10734;44.792;20.482;2024-01-27T09:29:51;7.95;;;1.58;;
21152;SDS011;10734;44.792;20.482;2024-01-27T09:32:18;6.25;;;2.30;;
21152;SDS011;10734;44.792;20.482;2024-01-27T09:34:44;6.43;;;1.80;;
21152;SDS011;10734;44.792;20.482;2024-01-27T09:37:11;8.25;;;1.50;;
21152;SDS011;10734;44.792;20.482;2024-01-27T09:39:38;5.57;;;1.73;;
21152;SDS011;10734;44.792;20.482;2024-01-27T09:42:05;5.30;;;1.55;;
21152;SDS011;10734;44.792;20.482;2024-01-27T09:44:33;4.63;;;1.40;;
21152;SDS011;10734;44.792;20.482;2024-01-27T09:47:01;4.80;;;1.60;;
21152;SDS011;10734;44.792;20.482;2024-01-27T09:49:28;8.75;;;1.50;;
21152;SDS011;10734;44.792;20.482;2024-01-27T09:51:56;3.90;;;1.10;;
21152;SDS011;10734;44.792;20.482;2024-01-27T09:54:23;18.05;;;1.50;;
21152;SDS011;10734;44.792;20.482;2024-01-27T09:56:50;9.40;;;2.40;;
21152;SDS011;10734;44.792;20.482;2024-01-27T09:59:17;16.25;;;3.03;;
21152;SDS011;10734;44.792;20.482;2024-01-27T10:01:45;3.20;;;1.40;;
21152;SDS011;10734;44.792;20.482;2024-01-27T10:04:11;7.18;;;1.52;;
21152;SDS011;10734;44.792;20.482;2024-01-27T10:06:40;6.15;;;1.55;;
21152;SDS011;10734;44.792;20.482;2024-01-27T10:09:07;6.80;;;1.75;;
21152;SDS011;10734;44.792;20.482;2024-01-27T10:11:34;6.68;;;1.90;;
21152;SDS011;10734;44.792;20.482;2024-01-27T10:14:02;5.10;;;1.52;;
21152;SDS011;10734;44.792;20.482;2024-01-27T10:16:39;9.45;;;1.58;;
21152;SDS011;10734;44.792;20.482;2024-01-27T10:19:05;9.20;;;1.90;;
21152;SDS011;10734;44.792;20.482;2024-01-27T10:21:32;16.42;;;2.45;;
21152;SDS011;10734;44.792;20.482;2024-01-27T10:24:00;4.85;;;1.75;;
21152;SDS011;10734;44.792;20.482;2024-01-27T10:26:30;7.22;;;1.70;;
21152;SDS011;10734;44.792;20.482;2024-01-27T10:28:57;7.28;;;1.92;;
21152;SDS011;10734;44.792;20.482;2024-01-27T10:31:27;5.60;;;1.50;;
21152;SDS011;10734;44.792;20.482;2024-01-27T10:33:56;6.55;;;1.70;;
21152;SDS011;10734;44.792;20.482;2024-01-27T10:36:23;10.70;;;1.73;;
21152;SDS011;10734;44.792;20.482;2024-01-27T10:38:50;8.88;;;1.70;;
21152;SDS011;10734;44.792;20.482;2024-01-27T10:41:23;12.13;;;1.70;;
21152;SDS011;10734;44.792;20.482;2024-01-27T10:43:51;5.93;;;1.88;;
21152;SDS011;10734;44.792;20.482;2024-01-27T10:46:21;6.70;;;1.50;;
21152;SDS011;10734;44.792;20.482;2024-01-27T10:48:50;6.18;;;2.17;;
21152;SDS011;10734;44.792;20.482;2024-01-27T10:51:30;8.10;;;1.50;;
21152;SDS011;10734;44.792;20.482;2024-01-27T10:54:10;5.35;;;1.63;;
21152;SDS011;10734;44.792;20.482;2024-01-27T10:56:39;7.47;;;1.50;;
21152;SDS011;10734;44.792;20.482;2024-01-27T10:59:09;8.00;;;1.48;;
21152;SDS011;10734;44.792;20.482;2024-01-27T11:01:36;7.88;;;1.67;;
21152;SDS011;10734;44.792;20.482;2024-01-27T11:04:04;2.20;;;1.35;;
21152;SDS011;10734;44.792;20.482;2024-01-27T11:06:32;7.63;;;1.83;;
21152;SDS011;10734;44.792;20.482;2024-01-27T11:09:01;5.32;;;1.50;;
21152;SDS011;10734;44.792;20.482;2024-01-27T11:11:30;8.05;;;1.70;;
21152;SDS011;10734;44.792;20.482;2024-01-27T11:13:57;6.20;;;2.38;;
21152;SDS011;10734;44.792;20.482;2024-01-27T11:16:24;10.20;;;1.75;;
21152;SDS011;10734;44.792;20.482;2024-01-27T11:18:50;4.70;;;1.40;;
21152;SDS011;10734;44.792;20.482;2024-01-27T11:21:17;6.82;;;1.63;;
21152;SDS011;10734;44.792;20.482;2024-01-27T11:23:44;7.72;;;1.33;;
21152;SDS011;10734;44.792;20.482;2024-01-27T11:26:17;5.00;;;1.55;;
21152;SDS011;10734;44.792;20.482;2024-01-27T11:28:44;10.50;;;1.70;;
21152;SDS011;10734;44.792;20.482;2024-01-27T11:31:11;9.65;;;2.22;;
21152;SDS011;10734;44.792;20.482;2024-01-27T11:33:45;12.05;;;2.10;;
21152;SDS011;10734;44.792;20.482;2024-01-27T11:36:23;8.77;;;1.85;;
21152;SDS011;10734;44.792;20.482;2024-01-27T11:38:51;7.78;;;1.00;;
21152;SDS011;10734;44.792;20.482;2024-01-27T11:41:25;8.32;;;1.52;;
21152;SDS011;10734;44.792;20.482;2024-01-27T11:43:52;3.65;;;1.17;;
21152;SDS011;10734;44.792;20.482;2024-01-27T11:46:19;11.57;;;1.30;;
21152;SDS011;10734;44.792;20.482;2024-01-27T11:48:46;6.25;;;1.52;;
21152;SDS011;10734;44.792;20.482;2024-01-27T11:51:13;22.45;;;1.80;;
21152;SDS011;10734;44.792;20.482;2024-01-27T11:53:40;6.00;;;1.50;;
21152;SDS011;10734;44.792;20.482;2024-01-27T11:56:07;5.32;;;1.60;;
21152;SDS011;10734;44.792;20.482;2024-01-27T11:58:33;5.05;;;1.25;;
21152;SDS011;10734;44.792;20.482;2024-01-27T12:01:00;12.43;;;1.50;;
21152;SDS011;10734;44.792;20.482;2024-01-27T12:03:27;4.07;;;1.60;;
21152;SDS011;10734;44.792;20.482;2024-01-27T12:05:55;4.88;;;1.83;;
21152;SDS011;10734;44.792;20.482;2024-01-27T12:08:25;7.57;;;1.65;;
21152;SDS011;10734;44.792;20.482;2024-01-27T12:10:51;9.02;;;1.75;;
21152;SDS011;10734;44.792;20.482;2024-01-27T12:13:18;4.03;;;1.42;;
21152;SDS011;10734;44.792;20.482;2024-01-27T12:15:45;4.40;;;1.40;;
21152;SDS011;10734;44.792;20.482;2024-01-27T12:18:11;4.57;;;0.85;;
21152;SDS011;10734;44.792;20.482;2024-01-27T12:20:39;3.38;;;1.20;;
21152;SDS011;10734;44.792;20.482;2024-01-27T12:23:06;4.80;;;1.35;;
21152;SDS011;10734;44.792;20.482;2024-01-27T12:25:33;7.78;;;3.10;;
21152;SDS011;10734;44.792;20.482;2024-01-27T12:28:03;6.80;;;2.30;;
21152;SDS011;10734;44.792;20.482;2024-01-27T12:30:33;5.95;;;1.92;;
21152;SDS011;10734;44.792;20.482;2024-01-27T12:33:00;8.05;;;2.45;;
21152;SDS011;10734;44.792;20.482;2024-01-27T12:35:28;9.93;;;5.93;;
21152;SDS011;10734;44.792;20.482;2024-01-27T12:37:55;9.80;;;2.50;;
21152;SDS011;10734;44.792;20.482;2024-01-27T12:40:22;5.15;;;1.08;;
21152;SDS011;10734;44.792;20.482;2024-01-27T12:42:50;4.15;;;1.13;;
21152;SDS011;10734;44.792;20.482;2024-01-27T12:45:17;14.23;;;1.67;;
21152;SDS011;10734;44.792;20.482;2024-01-27T12:47:45;5.65;;;1.92;;
21152;SDS011;10734;44.792;20.482;2024-01-27T12:50:11;8.65;;;1.75;;
21152;SDS011;10734;44.792;20.482;2024-01-27T12:52:38;4.80;;;1.25;;
21152;SDS011;10734;44.792;20.482;2024-01-27T12:55:05;4.20;;;1.35;;
21152;SDS011;10734;44.792;20.482;2024-01-27T12:57:32;7.97;;;1.73;;
21152;SDS011;10734;44.792;20.482;2024-01-27T12:59:58;7.50;;;1.40;;
21152;SDS011;10734;44.792;20.482;2024-01-27T13:02:25;6.95;;;1.55;;
21152;SDS011;10734;44.792;20.482;2024-01-27T13:04:52;10.13;;;1.98;;
21152;SDS011;10734;44.792;20.482;2024-01-27T13:07:19;6.07;;;1.50;;
21152;SDS011;10734;44.792;20.482;2024-01-27T13:09:45;12.60;;;1.77;;
21152;SDS011;10734;44.792;20.482;2024-01-27T13:12:12;5.53;;;1.80;;
21152;SDS011;10734;44.792;20.482;2024-01-27T13:14:39;4.45;;;1.88;;
21152;SDS011;10734;44.792;20.482;2024-01-27T13:17:05;4.60;;;1.85;;
21152;SDS011;10734;44.792;20.482;2024-01-27T13:19:32;8.80;;;2.13;;
21152;SDS011;10734;44.792;20.482;2024-01-27T13:21:59;14.40;;;1.98;;
21152;SDS011;10734;44.792;20.482;2024-01-27T13:24:44;3.00;;;1.20;;
21152;SDS011;10734;44.792;20.482;2024-01-27T13:27:11;6.53;;;1.33;;
21152;SDS011;10734;44.792;20.482;2024-01-27T13:29:38;7.15;;;1.40;;
21152;SDS011;10734;44.792;20.482;2024-01-27T13:32:05;6.65;;;1.80;;
21152;SDS011;10734;44.792;20.482;2024-01-27T13:34:31;6.68;;;2.08;;
21152;SDS011;10734;44.792;20.482;2024-01-27T13:36:59;8.40;;;1.90;;
21152;SDS011;10734;44.792;20.482;2024-01-27T13:39:29;5.65;;;1.92;;
21152;SDS011;10734;44.792;20.482;2024-01-27T13:41:56;5.20;;;1.80;;
21152;SDS011;10734;44.792;20.482;2024-01-27T13:44:22;7.53;;;1.58;;
21152;SDS011;10734;44.792;20.482;2024-01-27T13:46:49;4.78;;;1.65;;
21152;SDS011;10734;44.792;20.482;2024-01-27T13:49:15;5.40;;;1.73;;
21152;SDS011;10734;44.792;20.482;2024-01-27T13:51:43;6.60;;;1.90;;
21152;SDS011;10734;44.792;20.482;2024-01-27T13:54:09;6.28;;;1.83;;
21152;SDS011;10734;44.792;20.482;2024-01-27T13:56:36;10.88;;;2.45;;
21152;SDS011;10734;44.792;20.482;2024-01-27T13:59:03;6.53;;;1.88;;
21152;SDS011;10734;44.792;20.482;2024-01-27T14:01:30;8.05;;;2.05;;
21152;SDS011;10734;44.792;20.482;2024-01-27T14:03:57;7.30;;;2.28;;
21152;SDS011;10734;44.792;20.482;2024-01-27T14:06:24;8.43;;;2.40;;
21152;SDS011;10734;44.792;20.482;2024-01-27T14:08:51;10.18;;;1.88;;
21152;SDS011;10734;44.792;20.482;2024-01-27T14:11:17;8.77;;;2.13;;
21152;SDS011;10734;44.792;20.482;2024-01-27T14:13:45;5.28;;;1.88;;
21152;SDS011;10734;44.792;20.482;2024-01-27T14:16:12;5.53;;;2.00;;
21152;SDS011;10734;44.792;20.482;2024-01-27T14:18:38;10.73;;;2.58;;
21152;SDS011;10734;44.792;20.482;2024-01-27T14:21:05;10.95;;;2.85;;
21152;SDS011;10734;44.792;20.482;2024-01-27T14:23:32;6.47;;;1.90;;
21152;SDS011;10734;44.792;20.482;2024-01-27T14:25:58;4.60;;;1.58;;
21152;SDS011;10734;44.792;20.482;2024-01-27T14:28:25;7.90;;;2.25;;
21152;SDS011;10734;44.792;20.482;2024-01-27T14:30:52;6.70;;;1.88;;
21152;SDS011;10734;44.792;20.482;2024-01-27T14:33:19;4.63;;;2.05;;
21152;SDS011;10734;44.792;20.482;2024-01-27T14:35:47;6.68;;;2.00;;
21152;SDS011;10734;44.792;20.482;2024-01-27T14:38:14;7.53;;;1.80;;
21152;SDS011;10734;44.792;20.482;2024-01-27T14:40:40;10.63;;;2.28;;
21152;SDS011;10734;44.792;20.482;2024-01-27T14:43:07;6.50;;;1.67;;
21152;SDS011;10734;44.792;20.482;2024-01-27T14:45:38;5.72;;;2.08;;
21152;SDS011;10734;44.792;20.482;2024-01-27T14:48:05;7.07;;;2.58;;
21152;SDS011;10734;44.792;20.482;2024-01-27T14:50:32;6.78;;;1.98;;
21152;SDS011;10734;44.792;20.482;2024-01-27T14:52:58;5.18;;;1.65;;
21152;SDS011;10734;44.792;20.482;2024-01-27T14:55:25;5.10;;;1.75;;
21152;SDS011;10734;44.792;20.482;2024-01-27T14:57:53;8.70;;;2.58;;